createdAt,value
2018-04-24T00:02:19.141Z,99685.27
2018-04-24T00:04:46.801Z,99679.55
2018-04-24T00:07:14.382Z,99686.41
2018-04-24T00:09:41.973Z,99680.92
2018-04-24T00:12:09.593Z,99682.44
2018-04-24T00:14:37.174Z,99682.20
2018-04-24T00:17:04.830Z,99686.83
2018-04-24T00:19:32.439Z,99686.06
2018-04-24T00:22:00.042Z,99679.30
2018-04-24T00:24:27.663Z,99685.77
2018-04-24T00:26:55.326Z,99682.38
2018-04-24T00:29:22.933Z,99684.18
2018-04-24T00:31:50.526Z,99686.28
2018-04-24T00:34:18.151Z,99682.33
2018-04-24T00:36:45.771Z,99696.06
2018-04-24T00:39:13.365Z,99692.27
2018-04-24T00:41:40.988Z,99702.60
2018-04-24T00:44:08.579Z,99700.59
2018-04-24T00:46:36.205Z,99698.36
2018-04-24T00:49:03.817Z,99700.04
2018-04-24T00:51:31.462Z,99704.80
2018-04-24T00:53:59.054Z,99691.06
2018-04-24T00:56:26.681Z,99698.42
2018-04-24T00:58:54.621Z,99697.27
2018-04-24T01:01:22.238Z,99695.72
2018-04-24T01:03:49.817Z,99692.86
2018-04-24T01:06:17.402Z,99689.45
2018-04-24T01:08:45.018Z,99690.83
2018-04-24T01:11:12.673Z,99695.59
2018-04-24T01:13:40.282Z,99699.38
2018-04-24T01:16:07.869Z,99691.41
2018-04-24T01:18:35.449Z,99695.55
2018-04-24T01:21:03.106Z,99694.66
2018-04-24T01:23:30.690Z,99696.06
2018-04-24T01:25:58.311Z,99699.95
2018-04-24T01:28:25.926Z,99696.61
2018-04-24T01:30:53.529Z,99693.78
2018-04-24T01:33:21.145Z,99693.63
2018-04-24T01:35:48.746Z,99698.13
2018-04-24T01:38:16.326Z,99692.15
2018-04-24T01:40:43.917Z,99695.14
2018-04-24T01:43:11.527Z,99701.66
2018-04-24T01:45:39.125Z,99698.87
2018-04-24T01:48:06.725Z,99705.97
2018-04-24T01:50:34.330Z,99699.98
2018-04-24T01:53:01.942Z,99710.57
2018-04-24T01:55:29.533Z,99707.91
2018-04-24T01:57:57.161Z,99704.09
2018-04-24T02:00:24.830Z,99705.97
2018-04-24T02:02:52.445Z,99710.48
2018-04-24T02:05:20.037Z,99713.95
2018-04-24T02:07:47.654Z,99715.10
2018-04-24T02:10:15.289Z,99715.32
2018-04-24T02:12:42.897Z,99715.80
2018-04-24T02:15:10.529Z,99716.03
2018-04-24T02:17:38.129Z,99711.39
2018-04-24T02:20:05.743Z,99709.34
2018-04-24T02:22:33.346Z,99714.94
2018-04-24T02:25:01.073Z,99717.19
2018-04-24T02:27:28.620Z,99716.77
2018-04-24T02:29:56.217Z,99714.41
2018-04-24T02:32:23.869Z,99718.77
2018-04-24T02:34:51.486Z,99717.48
2018-04-24T02:37:19.084Z,99709.28
2018-04-24T02:39:46.705Z,99720.25
2018-04-24T02:42:14.302Z,99726.73
2018-04-24T02:44:41.886Z,99729.08
2018-04-24T02:47:09.478Z,99730.20
2018-04-24T02:49:37.077Z,99733.92
2018-04-24T02:52:04.777Z,99734.39
2018-04-24T02:54:32.392Z,99733.80
2018-04-24T02:56:59.998Z,99737.39
2018-04-24T02:59:27.613Z,99739.31
2018-04-24T03:01:55.201Z,99740.21
2018-04-24T03:04:22.797Z,99743.78
2018-04-24T03:06:50.435Z,99745.59
2018-04-24T03:09:18.021Z,99755.98
2018-04-24T03:11:45.673Z,99755.13
2018-04-24T03:14:13.301Z,99759.80
2018-04-24T03:16:40.881Z,99758.81
2018-04-24T03:19:08.601Z,99764.12
2018-04-24T03:21:36.226Z,99764.72
2018-04-24T03:24:03.860Z,99764.05
2018-04-24T03:26:31.461Z,99772.08
2018-04-24T03:28:59.074Z,99772.94
2018-04-24T03:31:26.690Z,99776.12
2018-04-24T03:33:54.290Z,99776.52
2018-04-24T03:36:21.909Z,99772.71
2018-04-24T03:38:49.497Z,99777.03
2018-04-24T03:41:17.101Z,99778.38
2018-04-24T03:43:44.753Z,99776.17
2018-04-24T03:46:12.341Z,99775.98
2018-04-24T03:48:39.934Z,99776.38
2018-04-24T03:51:07.529Z,99775.81
2018-04-24T03:53:35.114Z,99788.53
2018-04-24T03:56:02.725Z,99787.92
2018-04-24T03:58:30.362Z,99784.88
2018-04-24T04:00:57.985Z,99793.73
2018-04-24T04:03:25.570Z,99799.40
2018-04-24T04:05:53.198Z,99795.28
2018-04-24T04:08:20.794Z,99801.41
2018-04-24T04:10:48.389Z,99798.47
2018-04-24T04:13:15.990Z,99799.05
2018-04-24T04:15:43.581Z,99805.06
2018-04-24T04:18:22.980Z,99803.55
2018-04-24T04:21:02.265Z,99797.20
2018-04-24T04:23:42.498Z,99806.00
2018-04-24T04:26:10.089Z,99809.73
2018-04-24T04:28:37.708Z,99808.77
2018-04-24T04:31:05.310Z,99815.86
2018-04-24T04:33:32.933Z,99812.52
2018-04-24T04:36:00.530Z,99816.50
2018-04-24T04:38:28.127Z,99816.11
2018-04-24T04:40:55.746Z,99819.48
2018-04-24T04:43:23.337Z,99814.67
2018-04-24T04:45:50.951Z,99814.78
2018-04-24T04:48:18.583Z,99813.41
2018-04-24T04:50:46.170Z,99812.20
2018-04-24T04:53:13.814Z,99810.72
2018-04-24T04:55:41.445Z,99819.73
2018-04-24T04:58:09.033Z,99820.63
2018-04-24T05:00:36.653Z,99821.26
2018-04-24T05:03:04.282Z,99820.08
2018-04-24T05:05:31.873Z,99825.59
2018-04-24T05:07:59.490Z,99829.27
2018-04-24T05:10:27.083Z,99826.31
2018-04-24T05:12:54.675Z,99833.55
2018-04-24T05:15:22.306Z,99829.16
2018-04-24T05:17:49.911Z,99836.73
2018-04-24T05:20:17.510Z,99837.16
2018-04-24T05:22:45.200Z,99841.16
2018-04-24T05:25:12.825Z,99843.59
2018-04-24T05:27:40.415Z,99839.98
2018-04-24T05:30:08.022Z,99844.41
2018-04-24T05:32:35.617Z,99844.61
2018-04-24T05:35:03.213Z,99842.40
2018-04-24T05:37:30.805Z,99839.97
2018-04-24T05:39:58.392Z,99846.48
2018-04-24T05:42:25.986Z,99849.47
2018-04-24T05:44:53.585Z,99845.09
2018-04-24T05:47:21.205Z,99844.58
2018-04-24T05:49:48.830Z,99848.07
2018-04-24T05:52:16.552Z,99847.61
2018-04-24T05:54:44.113Z,99852.02
2018-04-24T05:57:11.753Z,99847.27
2018-04-24T05:59:39.350Z,99847.27
2018-04-24T06:02:06.937Z,99844.42
2018-04-24T06:04:34.529Z,99841.75
2018-04-24T06:07:02.119Z,99841.39
2018-04-24T06:09:29.717Z,99839.41
2018-04-24T06:11:57.313Z,99841.09
2018-04-24T06:14:24.925Z,99840.47
2018-04-24T06:16:52.647Z,99834.88
2018-04-24T06:19:20.245Z,99837.93
2018-04-24T06:21:47.829Z,99841.03
2018-04-24T06:24:15.436Z,99835.14
2018-04-24T06:26:43.033Z,99834.61
2018-04-24T06:29:10.669Z,99832.63
2018-04-24T06:31:38.325Z,99833.70
2018-04-24T06:34:05.929Z,99829.41
2018-04-24T06:36:33.557Z,99829.59
2018-04-24T06:39:01.148Z,99828.45
2018-04-24T06:41:28.742Z,99829.52
2018-04-24T06:43:56.361Z,99827.64
2018-04-24T06:46:23.960Z,99830.88
2018-04-24T06:48:51.557Z,99829.38
2018-04-24T06:51:19.161Z,99829.70
2018-04-24T06:53:46.822Z,99819.09
2018-04-24T06:56:14.457Z,99821.89
2018-04-24T06:58:42.077Z,99820.96
2018-04-24T07:01:09.689Z,99825.48
2018-04-24T07:03:37.321Z,99820.41
2018-04-24T07:06:04.921Z,99821.75
2018-04-24T07:08:32.547Z,99828.31
2018-04-24T07:11:00.149Z,99832.50
2018-04-24T07:13:27.734Z,99828.04
2018-04-24T07:15:55.368Z,99830.03
2018-04-24T07:18:22.969Z,99822.14
2018-04-24T07:20:50.570Z,99823.63
2018-04-24T07:23:18.205Z,99825.77
2018-04-24T07:25:45.806Z,99828.12
2018-04-24T07:28:13.421Z,99816.92
2018-04-24T07:30:41.043Z,99825.05
2018-04-24T07:33:08.675Z,99826.25
2018-04-24T07:35:36.281Z,99818.44
2018-04-24T07:38:03.874Z,99815.58
2018-04-24T07:40:31.553Z,99813.48
2018-04-24T07:42:59.147Z,99818.59
2018-04-24T07:45:26.735Z,99812.34
2018-04-24T07:47:54.354Z,99811.65
2018-04-24T07:50:21.945Z,99810.45
2018-04-24T07:52:49.552Z,99803.10
2018-04-24T07:55:17.230Z,99811.09
2018-04-24T07:57:45.602Z,99803.85
2018-04-24T08:00:13.265Z,99806.83
2018-04-24T08:02:40.885Z,99810.83
2018-04-24T08:05:08.485Z,99802.73
2018-04-24T08:07:36.073Z,99800.85
2018-04-24T08:10:03.712Z,99804.22
2018-04-24T08:12:31.309Z,99803.25
2018-04-24T08:14:58.960Z,99799.88
2018-04-24T08:17:26.550Z,99797.08
2018-04-24T08:19:54.154Z,99797.95
2018-04-24T08:22:21.865Z,99796.14
2018-04-24T08:24:49.488Z,99792.78
2018-04-24T08:27:17.078Z,99791.70
2018-04-24T08:29:44.678Z,99788.20
2018-04-24T08:32:12.389Z,99789.65
2018-04-24T08:34:39.986Z,99793.23
2018-04-24T08:37:07.604Z,99782.83
2018-04-24T08:39:35.200Z,99784.02
2018-04-24T08:42:02.818Z,99787.85
2018-04-24T08:44:30.421Z,99784.61
2018-04-24T08:46:58.035Z,99779.69
2018-04-24T08:49:25.649Z,99779.38
2018-04-24T08:51:53.297Z,99772.87
2018-04-24T08:54:20.880Z,99769.69
2018-04-24T08:56:48.502Z,99769.19
2018-04-24T08:59:16.101Z,99768.11
2018-04-24T09:01:43.706Z,99767.30
2018-04-24T09:04:11.378Z,99769.37
2018-04-24T09:06:38.974Z,99753.94
2018-04-24T09:09:06.621Z,99760.48
2018-04-24T09:11:34.290Z,99760.09
2018-04-24T09:14:01.947Z,99753.08
2018-04-24T09:16:29.483Z,99756.27
2018-04-24T09:18:57.065Z,99754.95
2018-04-24T09:21:24.739Z,99749.59
2018-04-24T09:23:52.353Z,99741.17
2018-04-24T09:26:19.974Z,99744.98
2018-04-24T09:28:47.614Z,99738.73
2018-04-24T09:31:15.213Z,99735.81
2018-04-24T09:33:42.841Z,99736.20
2018-04-24T09:36:10.589Z,99730.95
2018-04-24T09:38:38.918Z,99728.41
2018-04-24T09:41:06.526Z,99734.81
2018-04-24T09:43:34.149Z,99722.89
2018-04-24T09:46:01.903Z,99722.50
2018-04-24T09:48:29.498Z,99717.69
2018-04-24T09:50:57.086Z,99712.91
2018-04-24T09:53:24.715Z,99707.80
2018-04-24T09:55:52.314Z,99711.36
2018-04-24T09:58:19.926Z,99704.88
2018-04-24T10:00:47.579Z,99697.77
2018-04-24T10:03:15.295Z,99697.11
2018-04-24T10:05:42.922Z,99705.16
2018-04-24T10:08:10.534Z,99700.69
2018-04-24T10:10:38.190Z,99694.58
2018-04-24T10:13:05.786Z,99688.11
2018-04-24T10:15:33.469Z,99695.11
2018-04-24T10:18:01.142Z,99685.77
2018-04-24T10:20:28.753Z,99675.80
2018-04-24T10:22:56.402Z,99674.78
2018-04-24T10:25:24.008Z,99675.06
2018-04-24T10:27:51.593Z,99675.59
2018-04-24T10:30:19.278Z,99671.77
2018-04-24T10:32:46.882Z,99666.18
2018-04-24T10:35:14.477Z,99667.00
2018-04-24T10:37:42.097Z,99662.94
2018-04-24T10:40:09.706Z,99660.41
2018-04-24T10:42:37.298Z,99660.01
2018-04-24T10:45:04.937Z,99658.66
2018-04-24T10:47:32.536Z,99654.34
2018-04-24T10:50:00.130Z,99652.13
2018-04-24T10:52:27.745Z,99649.39
2018-04-24T10:54:55.371Z,99646.95
2018-04-24T10:57:22.983Z,99649.44
2018-04-24T10:59:50.582Z,99637.99
2018-04-24T11:02:18.198Z,99633.28
2018-04-24T11:04:45.821Z,99630.01
2018-04-24T11:07:13.409Z,99634.50
2018-04-24T11:09:41.004Z,99631.59
2018-04-24T11:12:08.613Z,99624.75
2018-04-24T11:14:36.234Z,99620.70
2018-04-24T11:17:03.861Z,99617.50
2018-04-24T11:19:31.486Z,99625.86
2018-04-24T11:21:59.136Z,99613.27
2018-04-24T11:24:26.694Z,99614.16
2018-04-24T11:26:54.308Z,99607.52
2018-04-24T11:29:21.902Z,99600.15
2018-04-24T11:31:49.491Z,99601.51
2018-04-24T11:34:17.137Z,99595.66
2018-04-24T11:36:44.772Z,99591.88
2018-04-24T11:39:12.397Z,99588.83
2018-04-24T11:41:40.015Z,99584.47
2018-04-24T11:44:07.665Z,99582.06
2018-04-24T11:46:35.258Z,99585.53
2018-04-24T11:49:02.849Z,99582.17
2018-04-24T11:51:30.465Z,99571.36
2018-04-24T11:53:58.081Z,99569.57
2018-04-24T11:56:25.678Z,99569.14
2018-04-24T11:58:53.266Z,99562.87
2018-04-24T12:01:20.850Z,99553.48
2018-04-24T12:03:48.453Z,99561.66
2018-04-24T12:06:16.077Z,99553.12
2018-04-24T12:08:43.693Z,99545.13
2018-04-24T12:11:11.266Z,99539.21
2018-04-24T12:13:38.851Z,99541.81
2018-04-24T12:16:06.483Z,99532.66
2018-04-24T12:18:34.074Z,99529.69
2018-04-24T12:21:01.666Z,99527.31
2018-04-24T12:23:29.306Z,99520.39
2018-04-24T12:25:56.890Z,99518.80
2018-04-24T12:28:24.491Z,99516.84
2018-04-24T12:30:52.105Z,99517.20
2018-04-24T12:33:19.733Z,99511.70
2018-04-24T12:35:47.324Z,99503.91
2018-04-24T12:38:14.925Z,99499.09
2018-04-24T12:40:42.517Z,99502.14
2018-04-24T12:43:10.106Z,99497.33
2018-04-24T12:45:37.781Z,99491.13
2018-04-24T12:48:05.384Z,99489.70
2018-04-24T12:50:32.977Z,99479.02
2018-04-24T12:53:00.645Z,99474.34
2018-04-24T12:55:28.246Z,99471.33
2018-04-24T12:57:55.873Z,99465.31
2018-04-24T13:00:23.462Z,99465.02
2018-04-24T13:02:51.070Z,99467.30
2018-04-24T13:05:18.685Z,99459.34
2018-04-24T13:07:46.313Z,99454.61
2018-04-24T13:10:13.946Z,99455.08
2018-04-24T13:12:41.528Z,99445.37
2018-04-24T13:15:09.212Z,99444.78
2018-04-24T13:17:36.806Z,99446.67
2018-04-24T13:20:04.414Z,99438.77
2018-04-24T13:22:32.015Z,99440.22
2018-04-24T13:24:59.641Z,99433.58
2018-04-24T13:27:27.266Z,99432.96
2018-04-24T13:29:54.849Z,99422.95
2018-04-24T13:32:22.437Z,99425.66
2018-04-24T13:34:50.022Z,99425.98
2018-04-24T13:37:17.676Z,99420.82
2018-04-24T13:39:45.271Z,99424.92
2018-04-24T13:42:12.905Z,99420.56
2018-04-24T13:44:40.509Z,99421.15
2018-04-24T13:47:08.128Z,99420.38
2018-04-24T13:49:35.758Z,99413.22
2018-04-24T13:52:03.425Z,99417.62
2018-04-24T13:54:31.065Z,99406.58
2018-04-24T13:56:58.647Z,99406.16
2018-04-24T13:59:26.237Z,99405.78
2018-04-24T14:01:53.825Z,99401.55
2018-04-24T14:04:21.461Z,99397.94
2018-04-24T14:06:49.046Z,99401.80
2018-04-24T14:09:16.658Z,99399.58
2018-04-24T14:11:44.275Z,99393.25
2018-04-24T14:14:11.881Z,99399.82
2018-04-24T14:16:39.466Z,99398.50
2018-04-24T14:19:07.053Z,99408.63
2018-04-24T14:21:34.664Z,99400.20
2018-04-24T14:24:02.263Z,99402.41
2018-04-24T14:26:29.849Z,99408.23
2018-04-24T14:28:57.466Z,99406.55
2018-04-24T14:31:25.068Z,99408.89
2018-04-24T14:33:52.649Z,99410.36
2018-04-24T14:36:20.266Z,99405.75
2018-04-24T14:38:47.873Z,99400.91
2018-04-24T14:41:15.483Z,99403.85
2018-04-24T14:43:43.119Z,99404.56
2018-04-24T14:46:10.715Z,99405.73
2018-04-24T14:48:38.311Z,99401.34
2018-04-24T14:51:05.897Z,99406.41
2018-04-24T14:53:33.493Z,99404.16
2018-04-24T14:56:01.106Z,99397.18
2018-04-24T14:58:28.743Z,99396.45
2018-04-24T15:00:56.411Z,99398.63
2018-04-24T15:03:24.006Z,99394.20
2018-04-24T15:05:51.635Z,99390.09
2018-04-24T15:08:19.240Z,99384.28
2018-04-24T15:10:46.843Z,99381.98
2018-04-24T15:13:14.443Z,99383.79
2018-04-24T15:15:42.078Z,99379.77
2018-04-24T15:18:09.718Z,99378.30
2018-04-24T15:20:37.400Z,99377.45
2018-04-24T15:23:04.956Z,99382.79
2018-04-24T15:25:32.553Z,99381.97
2018-04-24T15:28:00.145Z,99380.34
2018-04-24T15:30:27.777Z,99373.07
2018-04-24T15:32:55.369Z,99378.53
2018-04-24T15:35:22.955Z,99378.20
2018-04-24T15:37:50.571Z,99372.12
2018-04-24T15:40:18.211Z,99373.48
2018-04-24T15:42:45.797Z,99373.91
2018-04-24T15:45:13.381Z,99370.22
2018-04-24T15:47:41.062Z,99372.86
2018-04-24T15:50:08.658Z,99377.19
2018-04-24T15:52:36.901Z,99369.81
2018-04-24T15:55:06.166Z,99376.42
2018-04-24T15:57:35.405Z,99376.76
2018-04-24T16:00:04.312Z,99378.20
2018-04-24T16:02:32.139Z,99383.28
2018-04-24T16:04:59.925Z,99379.05
2018-04-24T16:07:27.533Z,99378.28
2018-04-24T16:09:55.127Z,99381.75
2018-04-24T16:12:22.897Z,99376.92
2018-04-24T16:14:50.450Z,99378.20
2018-04-24T16:17:19.066Z,99376.08
2018-04-24T16:19:46.702Z,99375.57
2018-04-24T16:22:14.546Z,99383.92
2018-04-24T16:24:42.161Z,99380.28
2018-04-24T16:27:10.551Z,99384.47
2018-04-24T16:29:38.347Z,99387.55
2018-04-24T16:32:06.734Z,99392.78
2018-04-24T16:34:34.322Z,99390.38
2018-04-24T16:37:01.966Z,99397.02
2018-04-24T16:39:29.557Z,99392.68
2018-04-24T16:41:57.157Z,99396.75
2018-04-24T16:44:24.738Z,99393.42
2018-04-24T16:46:53.278Z,99395.90
2018-04-24T16:49:21.282Z,99394.23
2018-04-24T16:51:48.887Z,99394.30
2018-04-24T16:54:16.649Z,99398.73
2018-04-24T16:56:44.222Z,99400.50
2018-04-24T16:59:11.821Z,99403.79
2018-04-24T17:01:39.442Z,99404.77
2018-04-24T17:04:07.037Z,99403.12
2018-04-24T17:06:34.618Z,99400.25
2018-04-24T17:09:02.970Z,99403.67
2018-04-24T17:11:31.357Z,99401.63
2018-04-24T17:13:58.998Z,99394.67
2018-04-24T17:16:26.594Z,99407.14
2018-04-24T17:18:54.254Z,99405.77
2018-04-24T17:21:21.908Z,99405.55
2018-04-24T17:23:49.529Z,99404.94
2018-04-24T17:26:18.261Z,99401.47
2018-04-24T17:28:45.947Z,99406.47
2018-04-24T17:31:14.418Z,99405.20
2018-04-24T17:33:42.081Z,99406.33
2018-04-24T17:36:11.791Z,99408.38
2018-04-24T17:38:40.142Z,99412.24
2018-04-24T17:41:07.938Z,99415.39
2018-04-24T17:43:35.656Z,99416.98
2018-04-24T17:46:04.112Z,99420.05
2018-04-24T17:48:31.950Z,99424.09
2018-04-24T17:50:59.581Z,99427.97
2018-04-24T17:53:27.169Z,99428.72
2018-04-24T17:55:55.126Z,99443.45
2018-04-24T17:58:23.353Z,99441.84
2018-04-24T18:00:52.692Z,99448.59
2018-04-24T18:03:20.280Z,99449.05
2018-04-24T18:05:49.110Z,99446.56
2018-04-24T18:08:17.834Z,99447.17
2018-04-24T18:10:45.429Z,99447.98
2018-04-24T18:13:13.273Z,99450.36
2018-04-24T18:15:41.875Z,99451.70
2018-04-24T18:20:36.334Z,99470.17
2018-04-24T18:23:03.961Z,99472.38
2018-04-24T18:25:31.553Z,99474.13
2018-04-24T18:27:59.158Z,99473.28
2018-04-24T18:30:26.777Z,99483.42
2018-04-24T18:32:55.010Z,99481.67
2018-04-24T18:35:22.641Z,99475.48
2018-04-24T18:37:50.809Z,99488.09
2018-04-24T18:40:19.501Z,99484.39
2018-04-24T18:42:47.068Z,99489.63
2018-04-24T18:45:14.668Z,99494.54
2018-04-24T18:47:42.269Z,99493.06
2018-04-24T18:50:09.935Z,99497.16
2018-04-24T18:52:38.566Z,99492.84
2018-04-24T18:55:09.037Z,99496.61
2018-04-24T18:57:36.684Z,99495.89
2018-04-24T19:00:06.652Z,99499.88
2018-04-24T19:02:34.812Z,99502.80
2018-04-24T19:05:02.698Z,99505.00
2018-04-24T19:07:30.893Z,99501.83
2018-04-24T19:09:58.492Z,99509.22
2018-04-24T19:12:26.114Z,99515.78
2018-04-24T19:14:53.701Z,99522.86
2018-04-24T19:17:21.317Z,99523.16
2018-04-24T19:19:49.665Z,99531.14
2018-04-24T19:22:17.261Z,99537.98
2018-04-24T19:24:50.442Z,99542.95
2018-04-24T19:27:18.038Z,99536.52
2018-04-24T19:29:45.628Z,99543.91
2018-04-24T19:32:18.766Z,99553.29
2018-04-24T19:34:48.973Z,99566.44
2018-04-24T19:37:17.511Z,99578.81
2018-04-24T19:39:51.773Z,99617.17
2018-04-24T19:42:20.370Z,99619.64
2018-04-24T19:44:49.063Z,99629.81
2018-04-24T19:47:20.510Z,99635.73
2018-04-24T19:49:53.661Z,99646.42
2018-04-24T19:52:21.291Z,99640.02
2018-04-24T19:54:54.524Z,99651.30
2018-04-24T19:57:23.211Z,99658.93
2018-04-24T19:59:52.051Z,99660.39
2018-04-24T20:02:21.009Z,99661.43
2018-04-24T20:04:50.949Z,99660.39
2018-04-24T20:07:19.178Z,99671.87
2018-04-24T20:09:47.357Z,99680.64
2018-04-24T20:12:16.859Z,99695.98
2018-04-24T20:14:47.476Z,99712.86
2018-04-24T20:17:16.716Z,99733.89
2018-04-24T20:19:46.394Z,99759.34
2018-04-24T20:22:16.816Z,99784.03
2018-04-24T20:24:50.114Z,99810.50
2018-04-24T20:27:19.579Z,99836.39
2018-04-24T20:29:52.458Z,99880.57
2018-04-24T20:32:20.133Z,99895.56
2018-04-24T20:34:48.481Z,99895.50
2018-04-24T20:40:17.456Z,99926.27
2018-04-24T20:42:50.673Z,99949.19
2018-04-24T20:45:19.142Z,99977.94
2018-04-24T20:47:49.338Z,99992.17
2018-04-24T20:50:19.859Z,100008.33
2018-04-24T20:52:47.542Z,100030.87
2018-04-24T20:55:16.637Z,100025.98
2018-04-24T21:02:39.024Z,100067.36
2018-04-24T21:05:12.611Z,100072.91
2018-04-24T21:08:17.496Z,100069.58
2018-04-24T21:10:51.567Z,100062.84
2018-04-24T21:13:39.817Z,100049.57
2018-04-24T21:16:16.485Z,100011.69
2018-04-24T21:18:48.352Z,99985.89
2018-04-24T21:21:25.846Z,99979.84
2018-04-24T21:24:37.865Z,99985.89
2018-04-24T21:27:16.035Z,99961.48
2018-04-24T21:29:46.458Z,99944.15
2018-04-24T21:32:19.551Z,99951.58
2018-04-24T21:34:48.525Z,99940.55
2018-04-24T21:37:19.621Z,99927.21
2018-04-24T21:42:22.929Z,99895.18
2018-04-24T21:44:53.174Z,99911.49
2018-04-24T21:47:25.893Z,99969.98
2018-04-24T21:50:03.789Z,99993.69
2018-04-24T21:52:34.418Z,99984.18
2018-04-24T21:55:08.897Z,99970.05
2018-04-24T21:57:38.445Z,99962.73
2018-04-24T22:00:10.959Z,99969.73
2018-04-24T22:02:39.533Z,99972.86
2018-04-24T22:05:12.386Z,99963.59
2018-04-24T22:07:42.182Z,99956.98
2018-04-24T22:10:13.930Z,99970.49
2018-04-24T22:12:42.553Z,99973.89
2018-04-24T22:17:44.061Z,99966.34
2018-04-24T22:20:14.638Z,99971.02
2018-04-24T22:22:42.242Z,99969.84
2018-04-24T22:25:10.820Z,99968.94
2018-04-24T22:27:40.292Z,99973.34
2018-04-24T22:30:13.213Z,99974.10
2018-04-24T22:32:46.157Z,99980.77
2018-04-24T22:35:18.859Z,99981.92
2018-04-24T22:37:50.905Z,99997.34
2018-04-24T22:40:19.104Z,100002.63
2018-04-24T22:42:49.987Z,100011.14
2018-04-24T22:45:19.877Z,100015.52
2018-04-24T22:47:47.542Z,100012.70
2018-04-24T22:50:16.223Z,100005.95
2018-04-24T22:52:44.972Z,100000.02
2018-04-24T22:55:16.708Z,99992.92
2018-04-24T22:57:46.308Z,99982.40
2018-04-24T23:00:17.954Z,99985.45
2018-04-24T23:02:46.395Z,99991.78
2018-04-24T23:05:14.018Z,99988.12
2018-04-24T23:07:46.565Z,99986.11
2018-04-24T23:10:20.867Z,99979.71
2018-04-24T23:13:00.257Z,99967.06
2018-04-24T23:15:39.465Z,99957.44
2018-04-24T23:18:20.049Z,99949.33
2018-04-24T23:20:52.183Z,99947.08
2018-04-24T23:23:20.846Z,99949.58
2018-04-24T23:25:53.930Z,99948.11
2018-04-24T23:28:22.772Z,99934.84
2018-04-24T23:30:53.374Z,99924.22
2018-04-24T23:33:21.886Z,99911.47
2018-04-24T23:35:51.458Z,99902.87
2018-04-24T23:38:27.701Z,99900.76
2018-04-24T23:40:59.758Z,99901.59
2018-04-24T23:43:30.346Z,99896.94
2018-04-24T23:46:00.753Z,99900.80
2018-04-24T23:48:28.993Z,99896.11
2018-04-24T23:51:03.463Z,99885.33
2018-04-24T23:53:32.345Z,99870.30
2018-04-24T23:56:01.218Z,99866.61
2018-04-24T23:58:30.046Z,99852.17
